sensor_id;sensor_type;location;lat;lon;timestamp;pressure;altitude;pressure_sealevel;temperature;humidity
18987;BME280;9627;59.236;18.142;2023-02-23T00:02:16;101296.38;;;-1.11;100.00
18987;BME280;9627;59.236;18.142;2023-02-23T00:04:43;101305.69;;;-1.21;100.00
18987;BME280;9627;59.236;18.142;2023-02-23T00:07:10;101291.28;;;-1.26;100.00
18987;BME280;9627;59.236;18.142;2023-02-23T00:09:37;101297.13;;;-1.23;100.00
18987;BME280;9627;59.236;18.142;2023-02-23T00:12:06;101308.94;;;-1.17;100.00
18987;BME280;9627;59.236;18.142;2023-02-23T00:14:34;101289.47;;;-1.12;100.00
18987;BME280;9627;59.236;18.142;2023-02-23T00:17:01;101289.19;;;-1.21;100.00
18987;BME280;9627;59.236;18.142;2023-02-23T00:19:29;101291.31;;;-1.14;100.00
18987;BME280;9627;59.236;18.142;2023-02-23T00:21:57;101287.53;;;-1.22;100.00
18987;BME280;9627;59.236;18.142;2023-02-23T00:24:25;101276.66;;;-1.15;100.00
18987;BME280;9627;59.236;18.142;2023-02-23T00:26:52;101278.84;;;-1.09;100.00
18987;BME280;9627;59.236;18.142;2023-02-23T00:29:21;101287.59;;;-1.10;100.00
18987;BME280;9627;59.236;18.142;2023-02-23T00:31:49;101275.69;;;-1.14;100.00
18987;BME280;9627;59.236;18.142;2023-02-23T00:34:17;101274.28;;;-1.05;100.00
18987;BME280;9627;59.236;18.142;2023-02-23T00:36:48;101277.28;;;-1.11;100.00
18987;BME280;9627;59.236;18.142;2023-02-23T00:39:15;101273.19;;;-1.15;100.00
18987;BME280;9627;59.236;18.142;2023-02-23T00:41:55;101259.22;;;-1.14;100.00
18987;BME280;9627;59.236;18.142;2023-02-23T00:44:28;101260.16;;;-1.15;100.00
18987;BME280;9627;59.236;18.142;2023-02-23T00:46:56;101248.03;;;-1.02;100.00
18987;BME280;9627;59.236;18.142;2023-02-23T00:49:23;101255.69;;;-1.13;100.00
18987;BME280;9627;59.236;18.142;2023-02-23T00:51:50;101246.44;;;-1.05;100.00
18987;BME280;9627;59.236;18.142;2023-02-23T00:54:18;101245.91;;;-1.10;100.00
18987;BME280;9627;59.236;18.142;2023-02-23T00:56:45;101243.94;;;-1.06;100.00
18987;BME280;9627;59.236;18.142;2023-02-23T00:59:13;101238.09;;;-1.10;100.00
18987;BME280;9627;59.236;18.142;2023-02-23T01:01:42;101231.13;;;-1.09;100.00
18987;BME280;9627;59.236;18.142;2023-02-23T01:04:09;101232.00;;;-0.96;100.00
18987;BME280;9627;59.236;18.142;2023-02-23T01:06:37;101228.03;;;-1.02;100.00
18987;BME280;9627;59.236;18.142;2023-02-23T01:09:05;101224.47;;;-1.01;100.00
18987;BME280;9627;59.236;18.142;2023-02-23T01:11:34;101213.53;;;-1.06;100.00
18987;BME280;9627;59.236;18.142;2023-02-23T01:14:01;101215.19;;;-1.05;100.00
18987;BME280;9627;59.236;18.142;2023-02-23T01:16:29;101206.53;;;-1.05;100.00
18987;BME280;9627;59.236;18.142;2023-02-23T01:18:59;101213.19;;;-1.01;100.00
18987;BME280;9627;59.236;18.142;2023-02-23T01:21:28;101206.88;;;-0.97;100.00
18987;BME280;9627;59.236;18.142;2023-02-23T01:23:56;101205.16;;;-1.11;100.00
18987;BME280;9627;59.236;18.142;2023-02-23T01:26:23;101203.38;;;-1.10;100.00
18987;BME280;9627;59.236;18.142;2023-02-23T01:28:51;101201.00;;;-1.01;100.00
18987;BME280;9627;59.236;18.142;2023-02-23T01:31:18;101202.63;;;-1.12;100.00
18987;BME280;9627;59.236;18.142;2023-02-23T01:33:45;101195.91;;;-1.02;100.00
18987;BME280;9627;59.236;18.142;2023-02-23T01:36:14;101184.16;;;-0.95;100.00
18987;BME280;9627;59.236;18.142;2023-02-23T01:38:42;101188.84;;;-1.00;100.00
18987;BME280;9627;59.236;18.142;2023-02-23T01:41:09;101190.31;;;-0.96;100.00
18987;BME280;9627;59.236;18.142;2023-02-23T01:46:18;101174.06;;;-0.87;100.00
18987;BME280;9627;59.236;18.142;2023-02-23T01:48:45;101176.78;;;-0.88;100.00
18987;BME280;9627;59.236;18.142;2023-02-23T01:51:15;101164.03;;;-0.93;100.00
18987;BME280;9627;59.236;18.142;2023-02-23T01:53:45;101168.50;;;-0.95;100.00
18987;BME280;9627;59.236;18.142;2023-02-23T01:56:14;101160.28;;;-0.89;100.00
18987;BME280;9627;59.236;18.142;2023-02-23T01:58:44;101157.78;;;-1.03;100.00
18987;BME280;9627;59.236;18.142;2023-02-23T02:01:12;101150.19;;;-0.93;100.00
18987;BME280;9627;59.236;18.142;2023-02-23T02:03:40;101154.22;;;-1.02;100.00
18987;BME280;9627;59.236;18.142;2023-02-23T02:06:08;101151.16;;;-1.09;100.00
18987;BME280;9627;59.236;18.142;2023-02-23T02:08:38;101145.88;;;-1.07;100.00
18987;BME280;9627;59.236;18.142;2023-02-23T02:11:09;101149.16;;;-1.18;100.00
18987;BME280;9627;59.236;18.142;2023-02-23T02:13:50;101139.19;;;-1.11;100.00
18987;BME280;9627;59.236;18.142;2023-02-23T02:16:29;101132.41;;;-1.14;100.00
18987;BME280;9627;59.236;18.142;2023-02-23T02:35:43;101087.69;;;-1.20;100.00
18987;BME280;9627;59.236;18.142;2023-02-23T02:38:19;101080.16;;;-1.25;100.00
18987;BME280;9627;59.236;18.142;2023-02-23T02:40:50;101083.16;;;-1.31;100.00
18987;BME280;9627;59.236;18.142;2023-02-23T02:43:20;101073.72;;;-1.19;100.00
18987;BME280;9627;59.236;18.142;2023-02-23T02:45:51;101071.72;;;-1.28;100.00
18987;BME280;9627;59.236;18.142;2023-02-23T02:48:22;101064.13;;;-1.19;100.00
18987;BME280;9627;59.236;18.142;2023-02-23T02:50:56;101062.34;;;-1.18;100.00
18987;BME280;9627;59.236;18.142;2023-02-23T02:53:27;101063.81;;;-1.27;100.00
18987;BME280;9627;59.236;18.142;2023-02-23T02:55:58;101053.28;;;-1.25;100.00
18987;BME280;9627;59.236;18.142;2023-02-23T02:58:29;101049.81;;;-1.26;100.00
18987;BME280;9627;59.236;18.142;2023-02-23T03:01:04;101049.09;;;-1.28;100.00
18987;BME280;9627;59.236;18.142;2023-02-23T03:03:48;101035.38;;;-1.30;100.00
18987;BME280;9627;59.236;18.142;2023-02-23T03:06:33;101030.63;;;-1.37;100.00
18987;BME280;9627;59.236;18.142;2023-02-23T03:09:22;101033.47;;;-1.28;100.00
18987;BME280;9627;59.236;18.142;2023-02-23T03:12:09;101025.25;;;-1.22;100.00
18987;BME280;9627;59.236;18.142;2023-02-23T03:14:54;101025.13;;;-1.33;100.00
18987;BME280;9627;59.236;18.142;2023-02-23T03:17:43;101029.41;;;-1.32;100.00
18987;BME280;9627;59.236;18.142;2023-02-23T03:20:29;101025.75;;;-1.29;100.00
18987;BME280;9627;59.236;18.142;2023-02-23T03:23:21;101005.34;;;-1.23;100.00
18987;BME280;9627;59.236;18.142;2023-02-23T03:26:10;101017.31;;;-1.33;100.00
18987;BME280;9627;59.236;18.142;2023-02-23T03:28:58;101002.94;;;-1.26;100.00
18987;BME280;9627;59.236;18.142;2023-02-23T03:31:45;101005.25;;;-1.34;100.00
18987;BME280;9627;59.236;18.142;2023-02-23T03:34:32;101002.94;;;-1.26;100.00
18987;BME280;9627;59.236;18.142;2023-02-23T03:37:19;100991.38;;;-1.22;100.00
18987;BME280;9627;59.236;18.142;2023-02-23T03:40:06;100990.56;;;-1.22;100.00
18987;BME280;9627;59.236;18.142;2023-02-23T03:42:55;100993.91;;;-1.20;100.00
18987;BME280;9627;59.236;18.142;2023-02-23T03:45:42;100986.91;;;-1.20;100.00
18987;BME280;9627;59.236;18.142;2023-02-23T03:48:26;100972.22;;;-1.21;100.00
18987;BME280;9627;59.236;18.142;2023-02-23T03:51:11;100977.34;;;-1.19;100.00
18987;BME280;9627;59.236;18.142;2023-02-23T03:53:58;100977.44;;;-1.21;100.00
18987;BME280;9627;59.236;18.142;2023-02-23T03:56:45;100976.09;;;-1.26;100.00
18987;BME280;9627;59.236;18.142;2023-02-23T03:59:34;100963.78;;;-1.24;100.00
18987;BME280;9627;59.236;18.142;2023-02-23T04:02:21;100965.97;;;-1.18;100.00
18987;BME280;9627;59.236;18.142;2023-02-23T04:05:07;100959.09;;;-1.19;100.00
18987;BME280;9627;59.236;18.142;2023-02-23T04:07:52;100963.16;;;-1.15;100.00
18987;BME280;9627;59.236;18.142;2023-02-23T04:10:38;100963.06;;;-1.14;100.00
18987;BME280;9627;59.236;18.142;2023-02-23T04:13:24;100959.53;;;-1.13;100.00
18987;BME280;9627;59.236;18.142;2023-02-23T04:15:53;100957.22;;;-1.17;100.00
18987;BME280;9627;59.236;18.142;2023-02-23T04:18:20;100952.94;;;-1.18;100.00
18987;BME280;9627;59.236;18.142;2023-02-23T04:20:49;100955.03;;;-1.23;100.00
18987;BME280;9627;59.236;18.142;2023-02-23T04:23:15;100948.25;;;-1.26;100.00
18987;BME280;9627;59.236;18.142;2023-02-23T04:25:43;100949.72;;;-1.22;100.00
18987;BME280;9627;59.236;18.142;2023-02-23T04:28:10;100942.50;;;-1.18;100.00
18987;BME280;9627;59.236;18.142;2023-02-23T04:30:36;100943.47;;;-1.19;100.00
18987;BME280;9627;59.236;18.142;2023-02-23T04:33:05;100946.91;;;-1.19;100.00
18987;BME280;9627;59.236;18.142;2023-02-23T04:35:32;100930.53;;;-1.08;100.00
18987;BME280;9627;59.236;18.142;2023-02-23T04:37:59;100940.34;;;-1.12;100.00
18987;BME280;9627;59.236;18.142;2023-02-23T04:40:26;100932.75;;;-1.15;100.00
18987;BME280;9627;59.236;18.142;2023-02-23T04:42:53;100923.66;;;-1.09;100.00
18987;BME280;9627;59.236;18.142;2023-02-23T04:45:21;100926.91;;;-1.06;100.00
18987;BME280;9627;59.236;18.142;2023-02-23T04:47:48;100923.56;;;-1.08;100.00
18987;BME280;9627;59.236;18.142;2023-02-23T04:50:17;100921.25;;;-1.00;100.00
18987;BME280;9627;59.236;18.142;2023-02-23T04:52:44;100920.66;;;-1.03;100.00
18987;BME280;9627;59.236;18.142;2023-02-23T04:55:14;100917.41;;;-1.07;100.00
18987;BME280;9627;59.236;18.142;2023-02-23T04:57:41;100911.16;;;-1.04;100.00
18987;BME280;9627;59.236;18.142;2023-02-23T05:00:09;100904.59;;;-1.10;100.00
18987;BME280;9627;59.236;18.142;2023-02-23T05:02:36;100903.31;;;-1.04;100.00
18987;BME280;9627;59.236;18.142;2023-02-23T05:05:03;100900.94;;;-1.07;100.00
18987;BME280;9627;59.236;18.142;2023-02-23T05:07:32;100897.50;;;-1.08;100.00
18987;BME280;9627;59.236;18.142;2023-02-23T05:09:59;100892.91;;;-1.04;100.00
18987;BME280;9627;59.236;18.142;2023-02-23T05:12:26;100886.97;;;-1.06;100.00
18987;BME280;9627;59.236;18.142;2023-02-23T05:14:53;100889.69;;;-1.08;100.00
18987;BME280;9627;59.236;18.142;2023-02-23T05:17:20;100886.13;;;-1.07;100.00
18987;BME280;9627;59.236;18.142;2023-02-23T05:19:47;100885.31;;;-1.07;100.00
18987;BME280;9627;59.236;18.142;2023-02-23T05:22:14;100881.88;;;-1.08;100.00
18987;BME280;9627;59.236;18.142;2023-02-23T05:24:43;100875.09;;;-1.10;100.00
18987;BME280;9627;59.236;18.142;2023-02-23T05:27:10;100876.78;;;-1.09;100.00
18987;BME280;9627;59.236;18.142;2023-02-23T05:29:38;100869.88;;;-1.10;100.00
18987;BME280;9627;59.236;18.142;2023-02-23T05:32:05;100869.34;;;-1.03;100.00
18987;BME280;9627;59.236;18.142;2023-02-23T05:34:32;100866.13;;;-1.06;100.00
18987;BME280;9627;59.236;18.142;2023-02-23T05:36:59;100861.75;;;-1.06;100.00
18987;BME280;9627;59.236;18.142;2023-02-23T05:39:26;100859.03;;;-1.04;100.00
18987;BME280;9627;59.236;18.142;2023-02-23T05:41:55;100864.25;;;-1.04;100.00
18987;BME280;9627;59.236;18.142;2023-02-23T05:44:22;100851.94;;;-1.02;100.00
18987;BME280;9627;59.236;18.142;2023-02-23T05:46:49;100855.28;;;-1.00;100.00
18987;BME280;9627;59.236;18.142;2023-02-23T05:49:16;100849.22;;;-1.01;100.00
18987;BME280;9627;59.236;18.142;2023-02-23T05:51:43;100846.75;;;-1.02;100.00
18987;BME280;9627;59.236;18.142;2023-02-23T05:54:10;100843.50;;;-1.06;100.00
18987;BME280;9627;59.236;18.142;2023-02-23T05:56:37;100838.91;;;-1.02;100.00
18987;BME280;9627;59.236;18.142;2023-02-23T05:59:06;100837.97;;;-1.01;100.00
18987;BME280;9627;59.236;18.142;2023-02-23T06:01:33;100824.13;;;-1.02;100.00
18987;BME280;9627;59.236;18.142;2023-02-23T06:03:59;100820.69;;;-1.02;100.00
18987;BME280;9627;59.236;18.142;2023-02-23T06:06:26;100817.97;;;-1.01;100.00
18987;BME280;9627;59.236;18.142;2023-02-23T06:08:53;100812.63;;;-0.99;100.00
18987;BME280;9627;59.236;18.142;2023-02-23T06:11:20;100817.84;;;-0.99;100.00
18987;BME280;9627;59.236;18.142;2023-02-23T06:13:48;100806.69;;;-1.01;100.00
18987;BME280;9627;59.236;18.142;2023-02-23T06:16:16;100810.03;;;-0.99;100.00
18987;BME280;9627;59.236;18.142;2023-02-23T06:18:45;100794.91;;;-0.94;100.00
18987;BME280;9627;59.236;18.142;2023-02-23T06:21:12;100796.81;;;-0.96;100.00
18987;BME280;9627;59.236;18.142;2023-02-23T06:23:39;100797.28;;;-0.91;100.00
18987;BME280;9627;59.236;18.142;2023-02-23T06:26:06;100789.47;;;-0.91;100.00
18987;BME280;9627;59.236;18.142;2023-02-23T06:28:33;100786.66;;;-0.88;100.00
18987;BME280;9627;59.236;18.142;2023-02-23T06:31:00;100784.25;;;-0.91;100.00
18987;BME280;9627;59.236;18.142;2023-02-23T06:33:29;100774.78;;;-0.92;100.00
18987;BME280;9627;59.236;18.142;2023-02-23T06:35:56;100777.28;;;-0.90;100.00
18987;BME280;9627;59.236;18.142;2023-02-23T06:38:23;100771.13;;;-0.89;100.00
18987;BME280;9627;59.236;18.142;2023-02-23T06:40:50;100773.63;;;-0.88;100.00
18987;BME280;9627;59.236;18.142;2023-02-23T06:43:17;100769.94;;;-0.85;100.00
18987;BME280;9627;59.236;18.142;2023-02-23T06:45:45;100768.19;;;-0.85;100.00
18987;BME280;9627;59.236;18.142;2023-02-23T06:48:12;100753.50;;;-0.86;100.00
18987;BME280;9627;59.236;18.142;2023-02-23T06:50:41;100760.25;;;-0.83;100.00
18987;BME280;9627;59.236;18.142;2023-02-23T06:53:07;100758.25;;;-0.80;100.00
18987;BME280;9627;59.236;18.142;2023-02-23T06:55:34;100764.19;;;-0.78;100.00
18987;BME280;9627;59.236;18.142;2023-02-23T06:58:01;100752.31;;;-0.82;100.00
18987;BME280;9627;59.236;18.142;2023-02-23T07:00:31;100759.94;;;-0.79;100.00
18987;BME280;9627;59.236;18.142;2023-02-23T07:02:58;100750.94;;;-0.75;100.00
18987;BME280;9627;59.236;18.142;2023-02-23T07:05:25;100744.91;;;-0.75;100.00
18987;BME280;9627;59.236;18.142;2023-02-23T07:07:54;100742.41;;;-0.77;100.00
18987;BME280;9627;59.236;18.142;2023-02-23T07:10:21;100736.97;;;-0.74;100.00
18987;BME280;9627;59.236;18.142;2023-02-23T07:12:47;100735.06;;;-0.72;100.00
18987;BME280;9627;59.236;18.142;2023-02-23T07:15:15;100727.97;;;-0.70;100.00
18987;BME280;9627;59.236;18.142;2023-02-23T07:17:41;100726.81;;;-0.66;100.00
18987;BME280;9627;59.236;18.142;2023-02-23T07:20:09;100715.44;;;-0.65;100.00
18987;BME280;9627;59.236;18.142;2023-02-23T07:22:36;100720.44;;;-0.62;100.00
18987;BME280;9627;59.236;18.142;2023-02-23T07:25:06;100719.97;;;-0.56;100.00
18987;BME280;9627;59.236;18.142;2023-02-23T07:27:33;100718.31;;;-0.57;100.00
18987;BME280;9627;59.236;18.142;2023-02-23T07:30:01;100714.41;;;-0.51;100.00
18987;BME280;9627;59.236;18.142;2023-02-23T07:32:28;100715.38;;;-0.52;100.00
18987;BME280;9627;59.236;18.142;2023-02-23T07:34:55;100703.03;;;-0.50;100.00
18987;BME280;9627;59.236;18.142;2023-02-23T07:37:22;100707.91;;;-0.46;100.00
18987;BME280;9627;59.236;18.142;2023-02-23T07:39:49;100712.78;;;-0.41;100.00
18987;BME280;9627;59.236;18.142;2023-02-23T07:42:17;100703.91;;;-0.39;100.00
18987;BME280;9627;59.236;18.142;2023-02-23T07:44:44;100694.06;;;-0.35;100.00
18987;BME280;9627;59.236;18.142;2023-02-23T07:47:11;100696.34;;;-0.31;100.00
18987;BME280;9627;59.236;18.142;2023-02-23T07:49:38;100691.59;;;-0.26;100.00
18987;BME280;9627;59.236;18.142;2023-02-23T07:52:05;100690.53;;;-0.23;100.00
18987;BME280;9627;59.236;18.142;2023-02-23T07:54:32;100686.75;;;-0.19;100.00
18987;BME280;9627;59.236;18.142;2023-02-23T07:56:59;100687.94;;;-0.12;100.00
18987;BME280;9627;59.236;18.142;2023-02-23T07:59:28;100685.09;;;-0.09;100.00
18987;BME280;9627;59.236;18.142;2023-02-23T08:01:56;100684.97;;;-0.08;100.00
18987;BME280;9627;59.236;18.142;2023-02-23T08:04:23;100688.53;;;0.03;100.00
18987;BME280;9627;59.236;18.142;2023-02-23T08:06:50;100687.69;;;0.02;100.00
18987;BME280;9627;59.236;18.142;2023-02-23T08:09:16;100677.75;;;0.07;100.00
18987;BME280;9627;59.236;18.142;2023-02-23T08:11:43;100682.50;;;0.13;100.00
18987;BME280;9627;59.236;18.142;2023-02-23T08:14:10;100676.66;;;0.10;100.00
18987;BME280;9627;59.236;18.142;2023-02-23T08:16:39;100668.75;;;0.11;100.00
18987;BME280;9627;59.236;18.142;2023-02-23T08:19:06;100672.88;;;0.14;100.00
18987;BME280;9627;59.236;18.142;2023-02-23T08:21:33;100652.00;;;0.25;100.00
18987;BME280;9627;59.236;18.142;2023-02-23T08:24:00;100656.59;;;0.21;100.00
18987;BME280;9627;59.236;18.142;2023-02-23T08:26:27;100651.63;;;0.29;100.00
18987;BME280;9627;59.236;18.142;2023-02-23T08:28:54;100648.66;;;0.34;100.00
18987;BME280;9627;59.236;18.142;2023-02-23T08:31:20;100643.78;;;0.40;100.00
18987;BME280;9627;59.236;18.142;2023-02-23T08:33:49;100641.28;;;0.39;100.00
18987;BME280;9627;59.236;18.142;2023-02-23T08:36:16;100643.41;;;0.45;100.00
18987;BME280;9627;59.236;18.142;2023-02-23T08:38:44;100639.38;;;0.41;100.00
18987;BME280;9627;59.236;18.142;2023-02-23T08:41:11;100634.41;;;0.49;100.00
18987;BME280;9627;59.236;18.142;2023-02-23T08:43:38;100624.88;;;0.59;100.00
18987;BME280;9627;59.236;18.142;2023-02-23T08:46:05;100625.06;;;0.67;100.00
18987;BME280;9627;59.236;18.142;2023-02-23T08:48:33;100621.03;;;0.74;100.00
18987;BME280;9627;59.236;18.142;2023-02-23T08:51:02;100629.31;;;0.79;100.00
18987;BME280;9627;59.236;18.142;2023-02-23T08:53:29;100622.13;;;0.60;100.00
18987;BME280;9627;59.236;18.142;2023-02-23T08:55:56;100617.63;;;0.62;100.00
18987;BME280;9627;59.236;18.142;2023-02-23T08:58:24;100616.78;;;0.62;100.00
18987;BME280;9627;59.236;18.142;2023-02-23T09:00:51;100604.22;;;0.56;100.00
18987;BME280;9627;59.236;18.142;2023-02-23T09:03:18;100604.06;;;0.57;100.00
18987;BME280;9627;59.236;18.142;2023-02-23T09:05:45;100604.28;;;0.65;100.00
18987;BME280;9627;59.236;18.142;2023-02-23T09:08:14;100602.03;;;0.72;100.00
18987;BME280;9627;59.236;18.142;2023-02-23T09:10:41;100603.44;;;0.76;100.00
18987;BME280;9627;59.236;18.142;2023-02-23T09:13:09;100602.03;;;0.72;100.00
18987;BME280;9627;59.236;18.142;2023-02-23T09:15:36;100594.94;;;0.63;100.00
18987;BME280;9627;59.236;18.142;2023-02-23T09:18:04;100592.91;;;0.66;100.00
18987;BME280;9627;59.236;18.142;2023-02-23T09:20:31;100586.13;;;0.64;100.00
18987;BME280;9627;59.236;18.142;2023-02-23T09:22:58;100584.81;;;0.69;100.00
18987;BME280;9627;59.236;18.142;2023-02-23T09:25:27;100580.03;;;0.74;100.00
18987;BME280;9627;59.236;18.142;2023-02-23T09:27:55;100577.53;;;0.73;100.00
18987;BME280;9627;59.236;18.142;2023-02-23T09:30:24;100571.00;;;0.78;100.00
18987;BME280;9627;59.236;18.142;2023-02-23T09:32:52;100567.38;;;0.90;100.00
18987;BME280;9627;59.236;18.142;2023-02-23T09:35:20;100567.09;;;1.05;100.00
18987;BME280;9627;59.236;18.142;2023-02-23T09:37:49;100565.47;;;1.13;100.00
18987;BME280;9627;59.236;18.142;2023-02-23T09:40:17;100561.50;;;1.19;100.00
18987;BME280;9627;59.236;18.142;2023-02-23T09:42:49;100562.03;;;1.13;100.00
18987;BME280;9627;59.236;18.142;2023-02-23T09:45:24;100560.94;;;1.15;100.00
18987;BME280;9627;59.236;18.142;2023-02-23T09:47:56;100559.03;;;1.17;100.00
18987;BME280;9627;59.236;18.142;2023-02-23T09:50:27;100553.94;;;1.16;100.00
18987;BME280;9627;59.236;18.142;2023-02-23T09:52:55;100551.81;;;1.10;100.00
18987;BME280;9627;59.236;18.142;2023-02-23T09:55:23;100550.81;;;1.22;100.00
18987;BME280;9627;59.236;18.142;2023-02-23T09:57:55;100550.84;;;1.11;100.00
18987;BME280;9627;59.236;18.142;2023-02-23T10:00:24;100558.25;;;1.26;100.00
18987;BME280;9627;59.236;18.142;2023-02-23T10:02:59;100547.94;;;1.25;100.00
18987;BME280;9627;59.236;18.142;2023-02-23T10:05:31;100547.75;;;1.17;100.00
18987;BME280;9627;59.236;18.142;2023-02-23T10:08:02;100540.34;;;1.22;100.00
18987;BME280;9627;59.236;18.142;2023-02-23T10:10:35;100538.59;;;1.32;100.00
18987;BME280;9627;59.236;18.142;2023-02-23T10:13:07;100531.41;;;1.45;100.00
18987;BME280;9627;59.236;18.142;2023-02-23T10:15:37;100528.13;;;1.52;100.00
18987;BME280;9627;59.236;18.142;2023-02-23T10:18:12;100527.16;;;1.53;100.00
18987;BME280;9627;59.236;18.142;2023-02-23T10:20:44;100527.34;;;1.61;100.00
18987;BME280;9627;59.236;18.142;2023-02-23T10:23:18;100519.03;;;1.86;100.00
18987;BME280;9627;59.236;18.142;2023-02-23T10:25:49;100515.75;;;2.04;100.00
18987;BME280;9627;59.236;18.142;2023-02-23T10:28:20;100514.22;;;2.01;100.00
18987;BME280;9627;59.236;18.142;2023-02-23T10:30:48;100528.09;;;1.82;100.00
18987;BME280;9627;59.236;18.142;2023-02-23T10:33:18;100510.19;;;1.87;100.00
18987;BME280;9627;59.236;18.142;2023-02-23T10:35:46;100510.97;;;1.69;100.00
18987;BME280;9627;59.236;18.142;2023-02-23T10:38:14;100507.09;;;1.63;100.00
18987;BME280;9627;59.236;18.142;2023-02-23T10:40:42;100499.59;;;1.49;100.00
18987;BME280;9627;59.236;18.142;2023-02-23T10:43:10;100495.44;;;1.37;100.00
18987;BME280;9627;59.236;18.142;2023-02-23T10:45:40;100487.50;;;1.48;100.00
18987;BME280;9627;59.236;18.142;2023-02-23T10:48:12;100478.03;;;1.27;100.00
18987;BME280;9627;59.236;18.142;2023-02-23T10:50:41;100478.88;;;1.27;100.00
18987;BME280;9627;59.236;18.142;2023-02-23T10:53:10;100470.03;;;1.28;100.00
18987;BME280;9627;59.236;18.142;2023-02-23T10:55:40;100468.59;;;1.35;100.00
18987;BME280;9627;59.236;18.142;2023-02-23T10:58:09;100462.66;;;1.33;100.00
18987;BME280;9627;59.236;18.142;2023-02-23T11:00:46;100460.00;;;1.63;100.00
18987;BME280;9627;59.236;18.142;2023-02-23T11:03:16;100454.78;;;1.73;100.00
18987;BME280;9627;59.236;18.142;2023-02-23T11:05:45;100451.75;;;1.77;100.00
18987;BME280;9627;59.236;18.142;2023-02-23T11:08:18;100448.41;;;1.66;100.00
18987;BME280;9627;59.236;18.142;2023-02-23T11:11:03;100447.34;;;1.68;100.00
18987;BME280;9627;59.236;18.142;2023-02-23T11:13:37;100442.50;;;1.54;100.00
18987;BME280;9627;59.236;18.142;2023-02-23T11:16:08;100441.38;;;1.57;100.00
18987;BME280;9627;59.236;18.142;2023-02-23T11:18:37;100438.06;;;1.55;100.00
18987;BME280;9627;59.236;18.142;2023-02-23T11:21:08;100441.94;;;1.60;100.00
18987;BME280;9627;59.236;18.142;2023-02-23T11:23:36;100441.81;;;1.62;100.00
18987;BME280;9627;59.236;18.142;2023-02-23T11:26:05;100434.22;;;1.59;100.00
18987;BME280;9627;59.236;18.142;2023-02-23T11:28:47;100432.06;;;1.34;100.00
18987;BME280;9627;59.236;18.142;2023-02-23T11:31:19;100423.00;;;1.38;100.00
18987;BME280;9627;59.236;18.142;2023-02-23T11:33:47;100411.50;;;1.50;100.00
18987;BME280;9627;59.236;18.142;2023-02-23T11:36:16;100416.00;;;1.38;100.00
18987;BME280;9627;59.236;18.142;2023-02-23T11:38:43;100403.44;;;1.32;100.00
18987;BME280;9627;59.236;18.142;2023-02-23T11:41:17;100404.41;;;1.31;100.00
18987;BME280;9627;59.236;18.142;2023-02-23T11:43:46;100400.00;;;1.32;100.00
18987;BME280;9627;59.236;18.142;2023-02-23T11:46:13;100394.38;;;1.36;100.00
18987;BME280;9627;59.236;18.142;2023-02-23T11:48:43;100388.31;;;1.36;100.00
18987;BME280;9627;59.236;18.142;2023-02-23T11:51:21;100380.38;;;1.47;100.00
18987;BME280;9627;59.236;18.142;2023-02-23T11:53:48;100377.88;;;1.45;100.00
18987;BME280;9627;59.236;18.142;2023-02-23T11:56:16;100381.31;;;1.36;100.00
18987;BME280;9627;59.236;18.142;2023-02-23T11:58:45;100376.06;;;1.36;100.00
18987;BME280;9627;59.236;18.142;2023-02-23T12:01:14;100381.72;;;1.41;100.00
18987;BME280;9627;59.236;18.142;2023-02-23T12:03:45;100375.13;;;1.37;100.00
18987;BME280;9627;59.236;18.142;2023-02-23T12:06:24;100366.31;;;1.48;100.00
18987;BME280;9627;59.236;18.142;2023-02-23T12:08:55;100367.16;;;1.48;100.00
18987;BME280;9627;59.236;18.142;2023-02-23T12:11:27;100356.84;;;1.47;100.00
18987;BME280;9627;59.236;18.142;2023-02-23T12:13:58;100348.41;;;1.43;100.00
18987;BME280;9627;59.236;18.142;2023-02-23T12:16:28;100349.50;;;1.31;100.00
18987;BME280;9627;59.236;18.142;2023-02-23T12:19:00;100342.19;;;1.25;100.00
18987;BME280;9627;59.236;18.142;2023-02-23T12:21:29;100344.81;;;1.35;100.00
18987;BME280;9627;59.236;18.142;2023-02-23T12:24:02;100344.81;;;1.35;100.00
18987;BME280;9627;59.236;18.142;2023-02-23T12:26:32;100348.28;;;1.45;100.00
18987;BME280;9627;59.236;18.142;2023-02-23T12:29:03;100346.06;;;1.40;100.00
18987;BME280;9627;59.236;18.142;2023-02-23T12:31:35;100328.47;;;1.42;100.00
18987;BME280;9627;59.236;18.142;2023-02-23T12:34:08;100330.53;;;1.48;100.00
18987;BME280;9627;59.236;18.142;2023-02-23T12:36:38;100324.16;;;1.32;100.00
18987;BME280;9627;59.236;18.142;2023-02-23T12:39:10;100320.06;;;1.39;100.00
18987;BME280;9627;59.236;18.142;2023-02-23T12:41:42;100313.97;;;1.29;100.00
18987;BME280;9627;59.236;18.142;2023-02-23T12:44:13;100310.69;;;1.36;100.00
18987;BME280;9627;59.236;18.142;2023-02-23T12:46:47;100313.72;;;1.51;100.00
18987;BME280;9627;59.236;18.142;2023-02-23T12:49:19;100315.81;;;1.57;100.00
18987;BME280;9627;59.236;18.142;2023-02-23T12:51:49;100307.97;;;1.66;100.00
18987;BME280;9627;59.236;18.142;2023-02-23T12:54:18;100311.25;;;1.68;100.00
18987;BME280;9627;59.236;18.142;2023-02-23T12:56:50;100299.00;;;1.59;100.00
18987;BME280;9627;59.236;18.142;2023-02-23T12:59:26;100291.72;;;1.53;100.00
18987;BME280;9627;59.236;18.142;2023-02-23T13:01:57;100299.41;;;1.55;100.00
18987;BME280;9627;59.236;18.142;2023-02-23T13:07:26;100286.31;;;1.26;100.00
18987;BME280;9627;59.236;18.142;2023-02-23T13:10:00;100277.50;;;1.27;100.00
18987;BME280;9627;59.236;18.142;2023-02-23T13:12:34;100289.63;;;1.28;100.00
18987;BME280;9627;59.236;18.142;2023-02-23T13:15:07;100283.56;;;1.28;100.00
18987;BME280;9627;59.236;18.142;2023-02-23T13:17:37;100269.66;;;1.27;100.00
18987;BME280;9627;59.236;18.142;2023-02-23T13:20:10;100265.94;;;1.30;100.00
18987;BME280;9627;59.236;18.142;2023-02-23T13:22:44;100270.91;;;1.42;100.00